Bright Hope — HPTM — position and weather

sailwx.info

Track history (hours):
 
Tides and Currents Weather Stations Pressure Air Temp Water Temp Dewpoint Dewpoint Depression Visibility Wind Speed Wind Dir Waves Ship Positions

Bright Hope

Last reported at 2017-Jan-16 14:26 UTC. Time now 2017-Jan-21 02:16 UTC.
Position S 30°23' E 030°58'.

Length 170 m; draft 5.4 m.

Type: Cargo ship. MMSI: 371117000.

Date/timePositionNaut miles runAvg speedWind from/ knotsBaromVisibWave heightAir tempDewpointWater temp
2017-Jan-16 14:26S 30°23' E 030°58'8 9.1
2017-Jan-16 13:32S 30°17' E 031°04'8 8.6
2017-Jan-16 12:34S 30°10' E 031°10'8 8.0
2017-Jan-16 11:34S 30°04' E 031°16'9 8.7
2017-Jan-16 10:34S 29°57' E 031°22'9 8.6
2017-Jan-16 09:34S 29°50' E 031°28'8 8.0
2017-Jan-16 08:34S 29°44' E 031°34'7 7.3
2017-Jan-16 07:34S 29°38' E 031°38'8 7.5
2017-Jan-16 06:34S 29°32' E 031°44'8 8.3
2017-Jan-16 05:34S 29°25' E 031°49'9 9.1
2017-Jan-16 04:33S 29°18' E 031°55'31 2.0
2017-Jan-15 13:27S 28°48' E 032°02'  
2017-Jan-12 14:07S 28°57' E 032°04'0 0.1
2017-Jan-12 13:10S 28°57' E 032°04'0 0.0
2017-Jan-12 12:16S 28°57' E 032°04'0 0.0
2017-Jan-12 11:07S 28°57' E 032°04'0 0.0
2017-Jan-12 10:31S 28°57' E 032°04'0 0.0
2017-Jan-11 21:31S 28°57' E 032°04'0 0.0
2017-Jan-11 19:25S 28°57' E 032°04'2 2.5
2017-Jan-11 18:33S 28°58' E 032°06'10 9.8
2017-Jan-11 17:30S 28°52' E 032°16'1212.5
2017-Jan-11 16:33S 28°52' E 032°29'  
Track history (hours):
 
Tides and Currents Weather Stations Pressure Air Temp Water Temp Dewpoint Dewpoint Depression Visibility Wind Speed Wind Dir Waves Ship Positions

Bright Hope

Last reported at 2017-Jan-16 14:26 UTC. Time now 2017-Jan-21 02:16 UTC.
Position S 30°23' E 030°58'.

Length 170 m; draft 5.4 m.

Type: Cargo ship. MMSI: 371117000.

Date/timePositionNaut miles runAvg speedWind from/ knotsBaromVisibWave heightAir tempDewpointWater temp
2017-Jan-16 14:26S 30°23' E 030°58'8 9.1
2017-Jan-16 13:32S 30°17' E 031°04'8 8.6
2017-Jan-16 12:34S 30°10' E 031°10'8 8.0
2017-Jan-16 11:34S 30°04' E 031°16'9 8.7
2017-Jan-16 10:34S 29°57' E 031°22'9 8.6
2017-Jan-16 09:34S 29°50' E 031°28'8 8.0
2017-Jan-16 08:34S 29°44' E 031°34'7 7.3
2017-Jan-16 07:34S 29°38' E 031°38'8 7.5
2017-Jan-16 06:34S 29°32' E 031°44'8 8.3
2017-Jan-16 05:34S 29°25' E 031°49'9 9.1
2017-Jan-16 04:33S 29°18' E 031°55'31 2.0
2017-Jan-15 13:27S 28°48' E 032°02'  
2017-Jan-12 14:07S 28°57' E 032°04'0 0.1
2017-Jan-12 13:10S 28°57' E 032°04'0 0.0
2017-Jan-12 12:16S 28°57' E 032°04'0 0.0
2017-Jan-12 11:07S 28°57' E 032°04'0 0.0
2017-Jan-12 10:31S 28°57' E 032°04'0 0.0
2017-Jan-11 21:31S 28°57' E 032°04'0 0.0
2017-Jan-11 19:25S 28°57' E 032°04'2 2.5
2017-Jan-11 18:33S 28°58' E 032°06'10 9.8
2017-Jan-11 17:30S 28°52' E 032°16'1212.5
2017-Jan-11 16:33S 28°52' E 032°29'  

Dump ship's entire track history